Joy — V2EI9 — position and weather

sailwx.info

Track history (hours):
 
Tides and Currents Weather Stations Pressure Air Temp Water Temp Dewpoint Dewpoint Depression Visibility Wind Speed Wind Dir Waves Ship Positions

Joy

Last reported at 2016-Apr-27 17:11 UTC. Time now 2016-May-02 03:42 UTC.
Position N 59°27' E 017°18'.

Length 105 m; draft 3.9 m.

Type: Cargo ship. MMSI: 305444000.

Date/timePositionNaut miles runAvg speedWind from/ knotsBaromVisibWave heightAir tempDewpointWater temp
2016-Apr-27 17:11N 59°27' E 017°18'810.3
2016-Apr-27 16:27N 59°21' E 017°29'228 8.1
2016-Apr-26 12:31N 55°42' E 015°35'9 8.9
2016-Apr-26 11:33N 55°38' E 015°21'9 8.8
2016-Apr-26 10:33N 55°33' E 015°08'9 8.9
2016-Apr-26 09:33N 55°29' E 014°55'9 8.6
2016-Apr-26 08:33N 55°24' E 014°42'9 9.1
2016-Apr-26 07:33N 55°17' E 014°32'10 9.7
2016-Apr-26 06:33N 55°10' E 014°20'10 9.7
2016-Apr-26 05:33N 55°02' E 014°10'9 9.0
2016-Apr-26 04:33N 54°59' E 013°55'9 9.2
2016-Apr-26 03:33N 54°56' E 013°40'9 9.0
2016-Apr-26 02:33N 54°53' E 013°25'29 9.6
2016-Apr-25 23:33N 54°43' E 012°38'1310.3
2016-Apr-25 22:16N 54°35' E 012°19'910.5
2016-Apr-25 21:25N 54°27' E 012°14'8 9.4
2016-Apr-25 20:33N 54°24' E 012°00'1010.4
2016-Apr-25 19:33N 54°25' E 011°43'1111.0
2016-Apr-25 18:33N 54°30' E 011°26'1110.7
2016-Apr-25 17:33N 54°35' E 011°09'1211.6
2016-Apr-25 16:33N 54°34' E 010°49'1111.3
2016-Apr-25 15:33N 54°32' E 010°30'1010.3
2016-Apr-25 14:33N 54°27' E 010°15'6 6.1
2016-Apr-25 13:33N 54°22' E 010°09'3 3.3
2016-Apr-25 12:33N 54°22' E 010°03'7 6.5
2016-Apr-25 11:33N 54°22' E 009°52'8 7.8
2016-Apr-25 10:32N 54°17' E 009°40'10 7.2
2016-Apr-25 09:10N 54°11' E 009°28'5 7.1
2016-Apr-25 08:32N 54°09' E 009°21'8 8.4
2016-Apr-25 07:34N 54°01' E 009°18'7 7.3
2016-Apr-25 06:33N 53°55' E 009°11'2 1.7
2016-Apr-25 05:33N 53°54' E 009°09'7 7.2
2016-Apr-25 04:34N 53°51' E 008°57'9 9.2
2016-Apr-25 03:33N 53°53' E 008°42'10 9.7
2016-Apr-25 02:33N 53°59' E 008°28'1010.4
2016-Apr-25 01:34N 53°60' E 008°10'1111.0
2016-Apr-25 00:33N 53°57' E 007°52'1211.7
2016-Apr-24 23:33N 53°54' E 007°33'1211.9
2016-Apr-24 22:34N 53°51' E 007°14'1211.5
2016-Apr-24 21:33N 53°49' E 006°54'1211.8
2016-Apr-24 20:33N 53°46' E 006°35'1111.3
2016-Apr-24 19:33N 53°43' E 006°17'1110.9
2016-Apr-24 18:33N 53°41' E 005°59'1010.3
2016-Apr-24 17:33N 53°38' E 005°42'10 9.5
2016-Apr-24 16:33N 53°35' E 005°27'9 9.0
2016-Apr-24 15:33N 53°32' E 005°12'9 8.6
2016-Apr-24 14:32N 53°29' E 004°59'28 6.9
2016-Apr-24 10:33N 53°08' E 004°29'7 6.9
2016-Apr-24 09:33N 53°01' E 004°24'7 6.7
2016-Apr-24 08:33N 52°55' E 004°20'9 7.8
2016-Apr-24 07:26N 52°48' E 004°12'8 8.8
2016-Apr-24 06:33N 52°42' E 004°04'12 9.8
2016-Apr-24 05:22N 52°34' E 003°50'10 9.9
2016-Apr-24 04:19N 52°26' E 003°38'7 9.6
2016-Apr-24 03:32N 52°19' E 003°37'9 9.4
2016-Apr-24 02:33N 52°10' E 003°35'7 7.1
2016-Apr-24 01:33N 52°06' E 003°44'6 6.0
2016-Apr-24 00:33N 52°02' E 003°52'8 7.6
2016-Apr-23 23:33N 51°59' E 004°04'2 1.7
2016-Apr-23 22:32N 51°58' E 004°03'0 0.0
2016-Apr-23 21:32N 51°58' E 004°03'0 0.0
2016-Apr-23 20:32N 51°58' E 004°03'0 0.0
2016-Apr-23 19:32N 51°58' E 004°03'0 0.0
2016-Apr-23 18:32N 51°58' E 004°03'0 0.0
2016-Apr-23 17:32N 51°58' E 004°03'0 0.0
2016-Apr-23 16:32N 51°58' E 004°03'0 0.0
2016-Apr-23 15:32N 51°58' E 004°03'0 0.0
2016-Apr-23 14:32N 51°58' E 004°03'0 0.0
2016-Apr-23 13:32N 51°58' E 004°03'0 0.0
2016-Apr-23 12:32N 51°58' E 004°03'0 0.0
2016-Apr-23 11:32N 51°58' E 004°03'0 0.0
2016-Apr-23 10:32N 51°58' E 004°03'0 0.1
2016-Apr-23 09:33N 51°58' E 004°03'3 3.3
2016-Apr-23 08:33N 51°60' E 003°59'8 7.5
2016-Apr-23 07:33N 51°60' E 003°46'8 7.7
2016-Apr-23 06:33N 51°58' E 003°34'49 9.8
2016-Apr-23 01:31N 51°34' E 002°24'1010.3
2016-Apr-23 00:33N 51°27' E 002°14'1010.1
2016-Apr-22 23:33N 51°17' E 002°08'9 9.2
2016-Apr-22 22:33N 51°11' E 001°58'8 8.1
2016-Apr-22 21:33N 51°06' E 001°47'6 6.2
2016-Apr-22 20:33N 51°02' E 001°40'5 5.2
2016-Apr-22 19:32N 50°58' E 001°34'5 5.5
2016-Apr-22 18:33N 50°54' E 001°29'7 6.4
2016-Apr-22 17:28N 50°47' E 001°26'55 8.0
2016-Apr-22 10:33N 50°19' E 000°10'1110.0
2016-Apr-22 09:30N 50°16' W 000°06'1510.8
2016-Apr-22 08:09N 50°12' W 000°28'710.8
2016-Apr-22 07:29N 50°11' W 000°39'78 7.7
2016-Apr-21 21:27N 49°52' W 002°36'1010.6
2016-Apr-21 20:33N 49°48' W 002°50'1210.9
2016-Apr-21 19:29N 49°43' W 003°06'1010.9
2016-Apr-21 18:33N 49°38' W 003°20'71 9.7
2016-Apr-21 11:15N 49°04' W 004°55'5 7.5
2016-Apr-21 10:33N 49°01' W 005°01'7 6.9
2016-Apr-21 09:33N 48°57' W 005°10'7 6.7
2016-Apr-21 08:33N 48°53' W 005°18'7 7.0
2016-Apr-21 07:33N 48°50' W 005°28'7 7.1
2016-Apr-21 06:33N 48°45' W 005°36'8 7.8
2016-Apr-21 05:32N 48°38' W 005°41'8 8.6
2016-Apr-21 04:33N 48°30' W 005°46'  
2016-Apr-17 19:11N 39°21' W 009°50'6 9.7
2016-Apr-17 18:33N 39°15' W 009°50'9 9.5
2016-Apr-17 17:33N 39°05' W 009°50'  
Track history (hours):
 
Tides and Currents Weather Stations Pressure Air Temp Water Temp Dewpoint Dewpoint Depression Visibility Wind Speed Wind Dir Waves Ship Positions

Joy

Last reported at 2016-Apr-27 17:11 UTC. Time now 2016-May-02 03:42 UTC.
Position N 59°27' E 017°18'.

Length 105 m; draft 3.9 m.

Type: Cargo ship. MMSI: 305444000.

Date/timePositionNaut miles runAvg speedWind from/ knotsBaromVisibWave heightAir tempDewpointWater temp
2016-Apr-27 17:11N 59°27' E 017°18'810.3
2016-Apr-27 16:27N 59°21' E 017°29'228 8.1
2016-Apr-26 12:31N 55°42' E 015°35'9 8.9
2016-Apr-26 11:33N 55°38' E 015°21'9 8.8
2016-Apr-26 10:33N 55°33' E 015°08'9 8.9
2016-Apr-26 09:33N 55°29' E 014°55'9 8.6
2016-Apr-26 08:33N 55°24' E 014°42'9 9.1
2016-Apr-26 07:33N 55°17' E 014°32'10 9.7
2016-Apr-26 06:33N 55°10' E 014°20'10 9.7
2016-Apr-26 05:33N 55°02' E 014°10'9 9.0
2016-Apr-26 04:33N 54°59' E 013°55'9 9.2
2016-Apr-26 03:33N 54°56' E 013°40'9 9.0
2016-Apr-26 02:33N 54°53' E 013°25'29 9.6
2016-Apr-25 23:33N 54°43' E 012°38'1310.3
2016-Apr-25 22:16N 54°35' E 012°19'910.5
2016-Apr-25 21:25N 54°27' E 012°14'8 9.4
2016-Apr-25 20:33N 54°24' E 012°00'1010.4
2016-Apr-25 19:33N 54°25' E 011°43'1111.0
2016-Apr-25 18:33N 54°30' E 011°26'1110.7
2016-Apr-25 17:33N 54°35' E 011°09'1211.6
2016-Apr-25 16:33N 54°34' E 010°49'1111.3
2016-Apr-25 15:33N 54°32' E 010°30'1010.3
2016-Apr-25 14:33N 54°27' E 010°15'6 6.1
2016-Apr-25 13:33N 54°22' E 010°09'3 3.3
2016-Apr-25 12:33N 54°22' E 010°03'7 6.5
2016-Apr-25 11:33N 54°22' E 009°52'8 7.8
2016-Apr-25 10:32N 54°17' E 009°40'10 7.2
2016-Apr-25 09:10N 54°11' E 009°28'5 7.1
2016-Apr-25 08:32N 54°09' E 009°21'8 8.4
2016-Apr-25 07:34N 54°01' E 009°18'7 7.3
2016-Apr-25 06:33N 53°55' E 009°11'2 1.7
2016-Apr-25 05:33N 53°54' E 009°09'7 7.2
2016-Apr-25 04:34N 53°51' E 008°57'9 9.2
2016-Apr-25 03:33N 53°53' E 008°42'10 9.7
2016-Apr-25 02:33N 53°59' E 008°28'1010.4
2016-Apr-25 01:34N 53°60' E 008°10'1111.0
2016-Apr-25 00:33N 53°57' E 007°52'1211.7
2016-Apr-24 23:33N 53°54' E 007°33'1211.9
2016-Apr-24 22:34N 53°51' E 007°14'1211.5
2016-Apr-24 21:33N 53°49' E 006°54'1211.8
2016-Apr-24 20:33N 53°46' E 006°35'1111.3
2016-Apr-24 19:33N 53°43' E 006°17'1110.9
2016-Apr-24 18:33N 53°41' E 005°59'1010.3
2016-Apr-24 17:33N 53°38' E 005°42'10 9.5
2016-Apr-24 16:33N 53°35' E 005°27'9 9.0
2016-Apr-24 15:33N 53°32' E 005°12'9 8.6
2016-Apr-24 14:32N 53°29' E 004°59'28 6.9
2016-Apr-24 10:33N 53°08' E 004°29'7 6.9
2016-Apr-24 09:33N 53°01' E 004°24'7 6.7
2016-Apr-24 08:33N 52°55' E 004°20'9 7.8
2016-Apr-24 07:26N 52°48' E 004°12'8 8.8
2016-Apr-24 06:33N 52°42' E 004°04'12 9.8
2016-Apr-24 05:22N 52°34' E 003°50'10 9.9
2016-Apr-24 04:19N 52°26' E 003°38'7 9.6
2016-Apr-24 03:32N 52°19' E 003°37'9 9.4
2016-Apr-24 02:33N 52°10' E 003°35'7 7.1
2016-Apr-24 01:33N 52°06' E 003°44'6 6.0
2016-Apr-24 00:33N 52°02' E 003°52'8 7.6
2016-Apr-23 23:33N 51°59' E 004°04'2 1.7
2016-Apr-23 22:32N 51°58' E 004°03'0 0.0
2016-Apr-23 21:32N 51°58' E 004°03'0 0.0
2016-Apr-23 20:32N 51°58' E 004°03'0 0.0
2016-Apr-23 19:32N 51°58' E 004°03'0 0.0
2016-Apr-23 18:32N 51°58' E 004°03'0 0.0
2016-Apr-23 17:32N 51°58' E 004°03'0 0.0
2016-Apr-23 16:32N 51°58' E 004°03'0 0.0
2016-Apr-23 15:32N 51°58' E 004°03'0 0.0
2016-Apr-23 14:32N 51°58' E 004°03'0 0.0
2016-Apr-23 13:32N 51°58' E 004°03'0 0.0
2016-Apr-23 12:32N 51°58' E 004°03'0 0.0
2016-Apr-23 11:32N 51°58' E 004°03'0 0.0
2016-Apr-23 10:32N 51°58' E 004°03'0 0.1
2016-Apr-23 09:33N 51°58' E 004°03'3 3.3
2016-Apr-23 08:33N 51°60' E 003°59'8 7.5
2016-Apr-23 07:33N 51°60' E 003°46'8 7.7
2016-Apr-23 06:33N 51°58' E 003°34'49 9.8
2016-Apr-23 01:31N 51°34' E 002°24'1010.3
2016-Apr-23 00:33N 51°27' E 002°14'1010.1
2016-Apr-22 23:33N 51°17' E 002°08'9 9.2
2016-Apr-22 22:33N 51°11' E 001°58'8 8.1
2016-Apr-22 21:33N 51°06' E 001°47'6 6.2
2016-Apr-22 20:33N 51°02' E 001°40'5 5.2
2016-Apr-22 19:32N 50°58' E 001°34'5 5.5
2016-Apr-22 18:33N 50°54' E 001°29'7 6.4
2016-Apr-22 17:28N 50°47' E 001°26'55 8.0
2016-Apr-22 10:33N 50°19' E 000°10'1110.0
2016-Apr-22 09:30N 50°16' W 000°06'1510.8
2016-Apr-22 08:09N 50°12' W 000°28'710.8
2016-Apr-22 07:29N 50°11' W 000°39'78 7.7
2016-Apr-21 21:27N 49°52' W 002°36'1010.6
2016-Apr-21 20:33N 49°48' W 002°50'1210.9
2016-Apr-21 19:29N 49°43' W 003°06'1010.9
2016-Apr-21 18:33N 49°38' W 003°20'71 9.7
2016-Apr-21 11:15N 49°04' W 004°55'5 7.5
2016-Apr-21 10:33N 49°01' W 005°01'7 6.9
2016-Apr-21 09:33N 48°57' W 005°10'7 6.7
2016-Apr-21 08:33N 48°53' W 005°18'7 7.0
2016-Apr-21 07:33N 48°50' W 005°28'7 7.1
2016-Apr-21 06:33N 48°45' W 005°36'8 7.8
2016-Apr-21 05:32N 48°38' W 005°41'8 8.6
2016-Apr-21 04:33N 48°30' W 005°46'  
2016-Apr-17 19:11N 39°21' W 009°50'6 9.7
2016-Apr-17 18:33N 39°15' W 009°50'9 9.5
2016-Apr-17 17:33N 39°05' W 009°50'  

Dump ship's entire track history